sensor_id;sensor_type;location;lat;lon;timestamp;P1;durP1;ratioP1;P2;durP2;ratioP2
5999;SDS011;3028;49.468;7.694;2023-03-22T00:01:47;9.73;;;8.73;;
5999;SDS011;3028;49.468;7.694;2023-03-22T00:03:49;9.95;;;9.05;;
5999;SDS011;3028;49.468;7.694;2023-03-22T00:05:55;10.48;;;9.43;;
5999;SDS011;3028;49.468;7.694;2023-03-22T00:07:58;9.38;;;6.47;;
5999;SDS011;3028;49.468;7.694;2023-03-22T00:09:59;9.63;;;7.07;;
5999;SDS011;3028;49.468;7.694;2023-03-22T00:12:01;8.85;;;8.07;;
5999;SDS011;3028;49.468;7.694;2023-03-22T00:14:03;8.55;;;7.80;;
5999;SDS011;3028;49.468;7.694;2023-03-22T00:16:06;7.85;;;7.25;;
5999;SDS011;3028;49.468;7.694;2023-03-22T00:18:09;7.97;;;7.28;;
5999;SDS011;3028;49.468;7.694;2023-03-22T00:20:12;7.90;;;7.20;;
5999;SDS011;3028;49.468;7.694;2023-03-22T00:22:14;9.63;;;7.30;;
5999;SDS011;3028;49.468;7.694;2023-03-22T00:24:16;7.82;;;7.00;;
5999;SDS011;3028;49.468;7.694;2023-03-22T00:26:18;7.38;;;6.35;;
5999;SDS011;3028;49.468;7.694;2023-03-22T00:28:20;6.15;;;5.65;;
5999;SDS011;3028;49.468;7.694;2023-03-22T00:30:22;8.52;;;5.75;;
5999;SDS011;3028;49.468;7.694;2023-03-22T00:32:23;7.82;;;7.13;;
5999;SDS011;3028;49.468;7.694;2023-03-22T00:34:30;6.40;;;5.88;;
5999;SDS011;3028;49.468;7.694;2023-03-22T00:36:33;8.23;;;7.47;;
5999;SDS011;3028;49.468;7.694;2023-03-22T00:38:34;8.73;;;8.00;;
5999;SDS011;3028;49.468;7.694;2023-03-22T00:40:44;10.48;;;9.45;;
5999;SDS011;3028;49.468;7.694;2023-03-22T00:42:46;8.38;;;7.68;;
5999;SDS011;3028;49.468;7.694;2023-03-22T00:44:48;7.68;;;6.80;;
5999;SDS011;3028;49.468;7.694;2023-03-22T00:46:49;8.32;;;7.55;;
5999;SDS011;3028;49.468;7.694;2023-03-22T00:48:51;10.05;;;7.30;;
5999;SDS011;3028;49.468;7.694;2023-03-22T00:50:53;8.20;;;7.50;;
5999;SDS011;3028;49.468;7.694;2023-03-22T00:52:55;6.97;;;6.25;;
5999;SDS011;3028;49.468;7.694;2023-03-22T00:54:57;7.53;;;6.82;;
5999;SDS011;3028;49.468;7.694;2023-03-22T00:56:58;7.40;;;6.70;;
5999;SDS011;3028;49.468;7.694;2023-03-22T00:59:00;6.55;;;5.18;;
5999;SDS011;3028;49.468;7.694;2023-03-22T01:01:02;7.47;;;6.93;;
5999;SDS011;3028;49.468;7.694;2023-03-22T01:03:04;13.52;;;6.07;;
5999;SDS011;3028;49.468;7.694;2023-03-22T01:05:07;7.75;;;6.50;;
5999;SDS011;3028;49.468;7.694;2023-03-22T01:07:10;6.43;;;5.93;;
5999;SDS011;3028;49.468;7.694;2023-03-22T01:09:11;6.97;;;6.30;;
5999;SDS011;3028;49.468;7.694;2023-03-22T01:11:15;5.53;;;5.13;;
5999;SDS011;3028;49.468;7.694;2023-03-22T01:13:17;5.40;;;4.90;;
5999;SDS011;3028;49.468;7.694;2023-03-22T01:15:19;5.80;;;5.00;;
5999;SDS011;3028;49.468;7.694;2023-03-22T01:17:20;6.00;;;5.25;;
5999;SDS011;3028;49.468;7.694;2023-03-22T01:19:23;5.88;;;5.47;;
5999;SDS011;3028;49.468;7.694;2023-03-22T01:21:24;5.05;;;4.65;;
5999;SDS011;3028;49.468;7.694;2023-03-22T01:23:27;6.53;;;5.93;;
5999;SDS011;3028;49.468;7.694;2023-03-22T01:25:28;6.57;;;5.75;;
5999;SDS011;3028;49.468;7.694;2023-03-22T01:27:31;6.78;;;6.18;;
5999;SDS011;3028;49.468;7.694;2023-03-22T01:29:32;6.15;;;5.30;;
5999;SDS011;3028;49.468;7.694;2023-03-22T01:31:35;6.13;;;5.45;;
5999;SDS011;3028;49.468;7.694;2023-03-22T01:33:37;6.13;;;5.63;;
5999;SDS011;3028;49.468;7.694;2023-03-22T01:35:39;6.10;;;5.60;;
5999;SDS011;3028;49.468;7.694;2023-03-22T01:37:41;5.70;;;5.20;;
5999;SDS011;3028;49.468;7.694;2023-03-22T01:39:42;5.82;;;5.30;;
5999;SDS011;3028;49.468;7.694;2023-03-22T01:41:44;4.85;;;4.40;;
5999;SDS011;3028;49.468;7.694;2023-03-22T01:46:29;4.60;;;4.20;;
5999;SDS011;3028;49.468;7.694;2023-03-22T01:48:34;5.80;;;5.38;;
5999;SDS011;3028;49.468;7.694;2023-03-22T01:50:51;6.78;;;4.72;;
5999;SDS011;3028;49.468;7.694;2023-03-22T01:53:04;5.60;;;5.05;;
5999;SDS011;3028;49.468;7.694;2023-03-22T01:55:07;4.75;;;4.45;;
5999;SDS011;3028;49.468;7.694;2023-03-22T01:57:10;5.95;;;5.38;;
5999;SDS011;3028;49.468;7.694;2023-03-22T01:59:12;6.38;;;5.82;;
5999;SDS011;3028;49.468;7.694;2023-03-22T02:01:14;6.20;;;5.00;;
5999;SDS011;3028;49.468;7.694;2023-03-22T02:03:18;6.68;;;4.90;;
5999;SDS011;3028;49.468;7.694;2023-03-22T02:05:37;6.45;;;5.35;;
5999;SDS011;3028;49.468;7.694;2023-03-22T02:07:40;6.38;;;5.32;;
5999;SDS011;3028;49.468;7.694;2023-03-22T02:09:43;6.20;;;5.60;;
5999;SDS011;3028;49.468;7.694;2023-03-22T02:11:50;6.15;;;5.55;;
5999;SDS011;3028;49.468;7.694;2023-03-22T02:17:05;9.20;;;5.38;;
5999;SDS011;3028;49.468;7.694;2023-03-22T02:35:41;5.90;;;5.35;;
5999;SDS011;3028;49.468;7.694;2023-03-22T02:49:16;5.68;;;5.18;;
5999;SDS011;3028;49.468;7.694;2023-03-22T02:51:33;5.70;;;5.18;;
5999;SDS011;3028;49.468;7.694;2023-03-22T02:58:24;6.60;;;6.10;;
5999;SDS011;3028;49.468;7.694;2023-03-22T03:00:31;6.18;;;5.57;;
5999;SDS011;3028;49.468;7.694;2023-03-22T03:02:33;5.85;;;5.25;;
5999;SDS011;3028;49.468;7.694;2023-03-22T03:04:37;6.20;;;5.70;;
5999;SDS011;3028;49.468;7.694;2023-03-22T03:06:43;6.05;;;5.45;;
5999;SDS011;3028;49.468;7.694;2023-03-22T03:08:47;8.48;;;5.70;;
5999;SDS011;3028;49.468;7.694;2023-03-22T03:10:51;8.60;;;5.65;;
5999;SDS011;3028;49.468;7.694;2023-03-22T03:12:54;5.88;;;5.22;;
5999;SDS011;3028;49.468;7.694;2023-03-22T03:14:56;5.60;;;5.18;;
5999;SDS011;3028;49.468;7.694;2023-03-22T03:19:21;5.78;;;5.35;;
5999;SDS011;3028;49.468;7.694;2023-03-22T03:21:30;5.60;;;5.10;;
5999;SDS011;3028;49.468;7.694;2023-03-22T03:23:55;6.15;;;5.43;;
5999;SDS011;3028;49.468;7.694;2023-03-22T03:27:05;6.15;;;5.65;;
5999;SDS011;3028;49.468;7.694;2023-03-22T03:28:59;6.18;;;5.55;;
5999;SDS011;3028;49.468;7.694;2023-03-22T03:31:27;7.70;;;5.13;;
5999;SDS011;3028;49.468;7.694;2023-03-22T03:33:33;4.82;;;4.32;;
5999;SDS011;3028;49.468;7.694;2023-03-22T03:35:40;9.43;;;5.32;;
5999;SDS011;3028;49.468;7.694;2023-03-22T03:37:46;4.97;;;4.57;;
5999;SDS011;3028;49.468;7.694;2023-03-22T03:39:55;11.55;;;4.93;;
5999;SDS011;3028;49.468;7.694;2023-03-22T03:42:01;6.97;;;4.53;;
5999;SDS011;3028;49.468;7.694;2023-03-22T03:44:05;5.65;;;5.15;;
5999;SDS011;3028;49.468;7.694;2023-03-22T03:46:07;5.60;;;5.05;;
5999;SDS011;3028;49.468;7.694;2023-03-22T03:48:21;6.80;;;4.55;;
5999;SDS011;3028;49.468;7.694;2023-03-22T03:50:24;6.15;;;5.65;;
5999;SDS011;3028;49.468;7.694;2023-03-22T03:52:27;8.95;;;6.25;;
5999;SDS011;3028;49.468;7.694;2023-03-22T03:54:29;5.57;;;5.07;;
5999;SDS011;3028;49.468;7.694;2023-03-22T03:56:31;10.13;;;9.25;;
5999;SDS011;3028;49.468;7.694;2023-03-22T03:58:33;9.20;;;8.30;;
5999;SDS011;3028;49.468;7.694;2023-03-22T04:00:35;8.25;;;7.60;;
5999;SDS011;3028;49.468;7.694;2023-03-22T04:02:38;7.43;;;6.03;;
5999;SDS011;3028;49.468;7.694;2023-03-22T04:04:39;7.10;;;6.35;;
5999;SDS011;3028;49.468;7.694;2023-03-22T04:06:41;5.85;;;4.63;;
5999;SDS011;3028;49.468;7.694;2023-03-22T04:08:44;5.22;;;4.72;;
5999;SDS011;3028;49.468;7.694;2023-03-22T04:10:49;5.30;;;4.82;;
5999;SDS011;3028;49.468;7.694;2023-03-22T04:12:52;5.40;;;4.72;;
5999;SDS011;3028;49.468;7.694;2023-03-22T04:14:53;5.10;;;4.60;;
5999;SDS011;3028;49.468;7.694;2023-03-22T04:16:56;6.13;;;5.60;;
5999;SDS011;3028;49.468;7.694;2023-03-22T04:18:58;5.68;;;5.15;;
5999;SDS011;3028;49.468;7.694;2023-03-22T04:20:59;5.78;;;5.25;;
5999;SDS011;3028;49.468;7.694;2023-03-22T04:23:01;6.13;;;5.63;;
5999;SDS011;3028;49.468;7.694;2023-03-22T04:25:03;6.32;;;5.72;;
5999;SDS011;3028;49.468;7.694;2023-03-22T04:27:06;7.10;;;4.60;;
5999;SDS011;3028;49.468;7.694;2023-03-22T04:29:08;5.45;;;5.00;;
5999;SDS011;3028;49.468;7.694;2023-03-22T04:31:10;6.80;;;4.75;;
5999;SDS011;3028;49.468;7.694;2023-03-22T04:33:12;5.47;;;4.95;;
5999;SDS011;3028;49.468;7.694;2023-03-22T04:35:15;6.22;;;4.45;;
5999;SDS011;3028;49.468;7.694;2023-03-22T04:37:18;5.53;;;4.57;;
5999;SDS011;3028;49.468;7.694;2023-03-22T04:39:20;4.80;;;4.20;;
5999;SDS011;3028;49.468;7.694;2023-03-22T04:41:22;4.78;;;3.50;;
5999;SDS011;3028;49.468;7.694;2023-03-22T04:43:23;5.13;;;4.47;;
5999;SDS011;3028;49.468;7.694;2023-03-22T04:45:25;6.05;;;4.40;;
5999;SDS011;3028;49.468;7.694;2023-03-22T04:47:29;5.25;;;4.78;;
5999;SDS011;3028;49.468;7.694;2023-03-22T04:49:31;6.20;;;4.63;;
5999;SDS011;3028;49.468;7.694;2023-03-22T04:51:33;6.28;;;5.63;;
5999;SDS011;3028;49.468;7.694;2023-03-22T04:53:35;5.82;;;5.25;;
5999;SDS011;3028;49.468;7.694;2023-03-22T04:55:41;5.72;;;5.22;;
5999;SDS011;3028;49.468;7.694;2023-03-22T04:57:43;5.68;;;5.18;;
5999;SDS011;3028;49.468;7.694;2023-03-22T04:59:48;5.10;;;4.30;;
5999;SDS011;3028;49.468;7.694;2023-03-22T05:01:50;4.97;;;4.07;;
5999;SDS011;3028;49.468;7.694;2023-03-22T05:03:52;4.93;;;4.55;;
5999;SDS011;3028;49.468;7.694;2023-03-22T05:05:55;3.95;;;3.58;;
5999;SDS011;3028;49.468;7.694;2023-03-22T05:07:58;9.07;;;4.68;;
5999;SDS011;3028;49.468;7.694;2023-03-22T05:09:59;6.72;;;4.82;;
5999;SDS011;3028;49.468;7.694;2023-03-22T05:12:02;5.20;;;3.90;;
5999;SDS011;3028;49.468;7.694;2023-03-22T05:14:04;5.90;;;4.53;;
5999;SDS011;3028;49.468;7.694;2023-03-22T05:16:06;4.50;;;4.10;;
5999;SDS011;3028;49.468;7.694;2023-03-22T05:18:09;6.50;;;4.53;;
5999;SDS011;3028;49.468;7.694;2023-03-22T05:20:11;5.75;;;5.05;;
5999;SDS011;3028;49.468;7.694;2023-03-22T05:22:13;6.25;;;4.68;;
5999;SDS011;3028;49.468;7.694;2023-03-22T05:24:15;4.32;;;3.70;;
5999;SDS011;3028;49.468;7.694;2023-03-22T05:26:17;6.50;;;4.65;;
5999;SDS011;3028;49.468;7.694;2023-03-22T05:28:20;4.88;;;4.43;;
5999;SDS011;3028;49.468;7.694;2023-03-22T05:30:22;4.43;;;4.03;;
5999;SDS011;3028;49.468;7.694;2023-03-22T05:32:24;5.47;;;4.63;;
5999;SDS011;3028;49.468;7.694;2023-03-22T05:34:29;5.90;;;4.32;;
5999;SDS011;3028;49.468;7.694;2023-03-22T05:36:36;4.80;;;4.40;;
5999;SDS011;3028;49.468;7.694;2023-03-22T05:38:37;6.00;;;5.03;;
5999;SDS011;3028;49.468;7.694;2023-03-22T05:40:42;4.63;;;4.22;;
5999;SDS011;3028;49.468;7.694;2023-03-22T05:42:44;4.97;;;4.57;;
5999;SDS011;3028;49.468;7.694;2023-03-22T05:44:46;4.97;;;4.32;;
5999;SDS011;3028;49.468;7.694;2023-03-22T05:46:48;5.82;;;4.25;;
5999;SDS011;3028;49.468;7.694;2023-03-22T05:48:50;17.73;;;15.98;;
5999;SDS011;3028;49.468;7.694;2023-03-22T05:50:51;18.42;;;16.92;;
5999;SDS011;3028;49.468;7.694;2023-03-22T05:52:53;18.25;;;14.48;;
5999;SDS011;3028;49.468;7.694;2023-03-22T05:54:55;8.43;;;7.82;;
5999;SDS011;3028;49.468;7.694;2023-03-22T05:56:57;6.63;;;6.13;;
5999;SDS011;3028;49.468;7.694;2023-03-22T05:58:59;6.90;;;6.18;;
5999;SDS011;3028;49.468;7.694;2023-03-22T06:01:04;5.95;;;5.25;;
5999;SDS011;3028;49.468;7.694;2023-03-22T06:03:08;6.35;;;4.72;;
5999;SDS011;3028;49.468;7.694;2023-03-22T06:05:09;5.53;;;5.00;;
5999;SDS011;3028;49.468;7.694;2023-03-22T06:07:12;9.05;;;4.60;;
5999;SDS011;3028;49.468;7.694;2023-03-22T06:09:14;5.90;;;4.05;;
5999;SDS011;3028;49.468;7.694;2023-03-22T06:11:18;5.47;;;3.83;;
5999;SDS011;3028;49.468;7.694;2023-03-22T06:13:20;4.10;;;3.42;;
5999;SDS011;3028;49.468;7.694;2023-03-22T06:15:22;4.68;;;4.28;;
5999;SDS011;3028;49.468;7.694;2023-03-22T06:17:24;4.38;;;3.72;;
5999;SDS011;3028;49.468;7.694;2023-03-22T06:19:25;5.88;;;4.30;;
5999;SDS011;3028;49.468;7.694;2023-03-22T06:21:28;4.15;;;3.75;;
5999;SDS011;3028;49.468;7.694;2023-03-22T06:23:32;4.13;;;3.83;;
5999;SDS011;3028;49.468;7.694;2023-03-22T06:25:38;4.68;;;4.13;;
5999;SDS011;3028;49.468;7.694;2023-03-22T06:27:48;4.03;;;3.33;;
5999;SDS011;3028;49.468;7.694;2023-03-22T06:29:57;4.30;;;3.67;;
5999;SDS011;3028;49.468;7.694;2023-03-22T06:32:05;4.18;;;3.88;;
5999;SDS011;3028;49.468;7.694;2023-03-22T06:34:10;5.75;;;4.30;;
5999;SDS011;3028;49.468;7.694;2023-03-22T06:36:16;5.25;;;4.25;;
5999;SDS011;3028;49.468;7.694;2023-03-22T06:38:17;4.25;;;3.75;;
5999;SDS011;3028;49.468;7.694;2023-03-22T06:40:19;5.00;;;4.18;;
5999;SDS011;3028;49.468;7.694;2023-03-22T06:42:21;6.30;;;3.33;;
5999;SDS011;3028;49.468;7.694;2023-03-22T06:44:23;4.25;;;3.30;;
5999;SDS011;3028;49.468;7.694;2023-03-22T06:46:24;5.25;;;3.65;;
5999;SDS011;3028;49.468;7.694;2023-03-22T06:48:26;3.50;;;3.05;;
5999;SDS011;3028;49.468;7.694;2023-03-22T06:50:28;5.22;;;3.13;;
5999;SDS011;3028;49.468;7.694;2023-03-22T06:52:31;4.70;;;3.25;;
5999;SDS011;3028;49.468;7.694;2023-03-22T06:54:32;4.07;;;3.72;;
5999;SDS011;3028;49.468;7.694;2023-03-22T06:56:34;3.78;;;3.38;;
5999;SDS011;3028;49.468;7.694;2023-03-22T06:58:36;3.67;;;3.33;;
5999;SDS011;3028;49.468;7.694;2023-03-22T07:00:38;5.88;;;3.47;;
5999;SDS011;3028;49.468;7.694;2023-03-22T07:02:40;3.80;;;3.45;;
5999;SDS011;3028;49.468;7.694;2023-03-22T07:04:43;3.05;;;2.85;;
5999;SDS011;3028;49.468;7.694;2023-03-22T07:06:46;4.78;;;3.55;;
5999;SDS011;3028;49.468;7.694;2023-03-22T07:08:48;3.20;;;2.85;;
5999;SDS011;3028;49.468;7.694;2023-03-22T07:10:52;3.22;;;2.92;;
5999;SDS011;3028;49.468;7.694;2023-03-22T07:12:54;4.75;;;3.00;;
5999;SDS011;3028;49.468;7.694;2023-03-22T07:14:55;5.03;;;3.00;;
5999;SDS011;3028;49.468;7.694;2023-03-22T07:16:57;3.10;;;2.60;;
5999;SDS011;3028;49.468;7.694;2023-03-22T07:18:59;2.72;;;2.35;;
5999;SDS011;3028;49.468;7.694;2023-03-22T07:21:01;3.10;;;2.33;;
5999;SDS011;3028;49.468;7.694;2023-03-22T07:23:03;6.45;;;2.80;;
5999;SDS011;3028;49.468;7.694;2023-03-22T07:25:05;9.30;;;3.20;;
5999;SDS011;3028;49.468;7.694;2023-03-22T07:27:07;3.55;;;2.42;;
5999;SDS011;3028;49.468;7.694;2023-03-22T07:29:09;2.78;;;2.17;;
5999;SDS011;3028;49.468;7.694;2023-03-22T07:31:11;4.47;;;3.00;;
5999;SDS011;3028;49.468;7.694;2023-03-22T07:33:14;3.40;;;2.50;;
5999;SDS011;3028;49.468;7.694;2023-03-22T07:35:16;2.58;;;2.35;;
5999;SDS011;3028;49.468;7.694;2023-03-22T07:37:19;7.97;;;2.88;;
5999;SDS011;3028;49.468;7.694;2023-03-22T07:39:21;3.60;;;2.35;;
5999;SDS011;3028;49.468;7.694;2023-03-22T07:41:24;2.47;;;2.33;;
5999;SDS011;3028;49.468;7.694;2023-03-22T07:43:29;4.97;;;2.45;;
5999;SDS011;3028;49.468;7.694;2023-03-22T07:45:30;2.33;;;2.00;;
5999;SDS011;3028;49.468;7.694;2023-03-22T07:47:32;4.13;;;3.10;;
5999;SDS011;3028;49.468;7.694;2023-03-22T07:49:41;4.70;;;2.75;;
5999;SDS011;3028;49.468;7.694;2023-03-22T07:51:44;3.35;;;2.08;;
5999;SDS011;3028;49.468;7.694;2023-03-22T07:53:57;2.35;;;1.83;;
5999;SDS011;3028;49.468;7.694;2023-03-22T07:56:02;2.42;;;2.22;;
5999;SDS011;3028;49.468;7.694;2023-03-22T07:58:05;6.50;;;2.20;;
5999;SDS011;3028;49.468;7.694;2023-03-22T08:00:07;3.72;;;2.20;;
5999;SDS011;3028;49.468;7.694;2023-03-22T08:02:12;3.22;;;1.73;;
5999;SDS011;3028;49.468;7.694;2023-03-22T08:04:14;4.78;;;1.98;;
5999;SDS011;3028;49.468;7.694;2023-03-22T08:06:16;2.92;;;1.60;;
5999;SDS011;3028;49.468;7.694;2023-03-22T08:08:21;5.22;;;2.15;;
5999;SDS011;3028;49.468;7.694;2023-03-22T08:10:23;2.80;;;1.70;;
5999;SDS011;3028;49.468;7.694;2023-03-22T08:12:25;2.00;;;1.70;;
5999;SDS011;3028;49.468;7.694;2023-03-22T08:14:28;5.15;;;1.60;;
5999;SDS011;3028;49.468;7.694;2023-03-22T08:16:36;2.65;;;1.67;;
5999;SDS011;3028;49.468;7.694;2023-03-22T08:18:38;3.38;;;1.88;;
5999;SDS011;3028;49.468;7.694;2023-03-22T08:20:42;2.08;;;1.88;;
5999;SDS011;3028;49.468;7.694;2023-03-22T08:22:45;1.77;;;1.60;;
5999;SDS011;3028;49.468;7.694;2023-03-22T08:24:47;2.97;;;1.75;;
5999;SDS011;3028;49.468;7.694;2023-03-22T08:26:49;2.38;;;1.90;;
5999;SDS011;3028;49.468;7.694;2023-03-22T08:28:51;2.17;;;1.80;;
5999;SDS011;3028;49.468;7.694;2023-03-22T08:31:00;4.38;;;1.98;;
5999;SDS011;3028;49.468;7.694;2023-03-22T08:33:03;1.85;;;1.52;;
5999;SDS011;3028;49.468;7.694;2023-03-22T08:35:05;2.10;;;1.90;;
5999;SDS011;3028;49.468;7.694;2023-03-22T08:37:11;6.75;;;1.48;;
5999;SDS011;3028;49.468;7.694;2023-03-22T08:39:22;1.42;;;1.33;;
5999;SDS011;3028;49.468;7.694;2023-03-22T08:41:26;1.50;;;1.38;;
5999;SDS011;3028;49.468;7.694;2023-03-22T08:43:28;1.23;;;1.13;;
5999;SDS011;3028;49.468;7.694;2023-03-22T08:45:30;2.70;;;1.45;;
5999;SDS011;3028;49.468;7.694;2023-03-22T08:47:32;2.78;;;1.20;;
5999;SDS011;3028;49.468;7.694;2023-03-22T08:49:44;2.60;;;1.42;;
5999;SDS011;3028;49.468;7.694;2023-03-22T08:51:49;1.60;;;1.50;;
5999;SDS011;3028;49.468;7.694;2023-03-22T08:53:51;0.93;;;0.90;;
5999;SDS011;3028;49.468;7.694;2023-03-22T08:55:54;3.40;;;1.20;;
5999;SDS011;3028;49.468;7.694;2023-03-22T08:57:59;1.63;;;1.52;;
5999;SDS011;3028;49.468;7.694;2023-03-22T09:00:03;1.38;;;1.05;;
5999;SDS011;3028;49.468;7.694;2023-03-22T09:02:11;3.03;;;1.20;;
5999;SDS011;3028;49.468;7.694;2023-03-22T09:04:13;0.93;;;0.90;;
5999;SDS011;3028;49.468;7.694;2023-03-22T09:06:16;1.33;;;1.05;;
5999;SDS011;3028;49.468;7.694;2023-03-22T09:08:18;1.70;;;1.55;;
5999;SDS011;3028;49.468;7.694;2023-03-22T09:10:21;2.13;;;1.23;;
5999;SDS011;3028;49.468;7.694;2023-03-22T09:12:24;1.25;;;0.90;;
5999;SDS011;3028;49.468;7.694;2023-03-22T09:14:26;2.30;;;1.00;;
5999;SDS011;3028;49.468;7.694;2023-03-22T09:16:34;1.48;;;1.25;;
5999;SDS011;3028;49.468;7.694;2023-03-22T09:18:45;3.05;;;1.67;;
5999;SDS011;3028;49.468;7.694;2023-03-22T09:20:47;3.85;;;1.25;;
5999;SDS011;3028;49.468;7.694;2023-03-22T09:22:49;1.92;;;1.13;;
5999;SDS011;3028;49.468;7.694;2023-03-22T09:24:53;0.88;;;0.88;;
5999;SDS011;3028;49.468;7.694;2023-03-22T09:26:54;0.63;;;0.63;;
5999;SDS011;3028;49.468;7.694;2023-03-22T09:28:58;1.70;;;0.68;;
5999;SDS011;3028;49.468;7.694;2023-03-22T09:31:00;0.90;;;0.90;;
5999;SDS011;3028;49.468;7.694;2023-03-22T09:33:04;1.15;;;0.80;;
5999;SDS011;3028;49.468;7.694;2023-03-22T09:35:07;1.27;;;0.82;;
5999;SDS011;3028;49.468;7.694;2023-03-22T09:37:09;0.90;;;0.75;;
5999;SDS011;3028;49.468;7.694;2023-03-22T09:39:13;1.02;;;0.90;;
5999;SDS011;3028;49.468;7.694;2023-03-22T09:41:24;1.30;;;0.80;;
5999;SDS011;3028;49.468;7.694;2023-03-22T09:43:36;0.88;;;0.80;;
5999;SDS011;3028;49.468;7.694;2023-03-22T09:45:41;1.23;;;0.85;;
5999;SDS011;3028;49.468;7.694;2023-03-22T09:47:45;0.80;;;0.65;;
5999;SDS011;3028;49.468;7.694;2023-03-22T09:49:49;0.88;;;0.70;;
5999;SDS011;3028;49.468;7.694;2023-03-22T09:52:01;0.88;;;0.70;;
5999;SDS011;3028;49.468;7.694;2023-03-22T09:56:41;1.02;;;0.90;;
5999;SDS011;3028;49.468;7.694;2023-03-22T09:58:49;0.95;;;0.95;;
5999;SDS011;3028;49.468;7.694;2023-03-22T10:00:57;0.88;;;0.60;;
5999;SDS011;3028;49.468;7.694;2023-03-22T10:07:59;2.55;;;0.85;;
5999;SDS011;3028;49.468;7.694;2023-03-22T10:10:16;2.08;;;1.02;;
5999;SDS011;3028;49.468;7.694;2023-03-22T10:12:24;1.65;;;1.10;;
5999;SDS011;3028;49.468;7.694;2023-03-22T10:16:31;0.85;;;0.85;;
5999;SDS011;3028;49.468;7.694;2023-03-22T10:18:36;1.38;;;0.80;;
5999;SDS011;3028;49.468;7.694;2023-03-22T10:22:49;0.70;;;0.70;;
5999;SDS011;3028;49.468;7.694;2023-03-22T10:24:53;1.02;;;0.85;;
5999;SDS011;3028;49.468;7.694;2023-03-22T10:26:56;0.63;;;0.63;;
5999;SDS011;3028;49.468;7.694;2023-03-22T10:29:01;1.67;;;0.80;;
5999;SDS011;3028;49.468;7.694;2023-03-22T10:31:05;0.60;;;0.60;;
5999;SDS011;3028;49.468;7.694;2023-03-22T10:33:15;2.22;;;0.70;;
5999;SDS011;3028;49.468;7.694;2023-03-22T10:35:22;0.73;;;0.73;;
5999;SDS011;3028;49.468;7.694;2023-03-22T10:37:28;1.05;;;0.95;;
5999;SDS011;3028;49.468;7.694;2023-03-22T10:39:33;1.80;;;0.90;;
5999;SDS011;3028;49.468;7.694;2023-03-22T10:41:39;1.42;;;0.77;;
5999;SDS011;3028;49.468;7.694;2023-03-22T10:43:44;1.02;;;0.90;;
5999;SDS011;3028;49.468;7.694;2023-03-22T10:45:52;0.82;;;0.73;;
5999;SDS011;3028;49.468;7.694;2023-03-22T10:48:01;0.80;;;0.80;;
5999;SDS011;3028;49.468;7.694;2023-03-22T10:50:34;1.13;;;0.60;;
5999;SDS011;3028;49.468;7.694;2023-03-22T10:54:59;1.77;;;0.85;;
5999;SDS011;3028;49.468;7.694;2023-03-22T10:57:07;0.60;;;0.60;;
5999;SDS011;3028;49.468;7.694;2023-03-22T10:59:50;1.27;;;0.70;;
5999;SDS011;3028;49.468;7.694;2023-03-22T11:01:54;0.50;;;0.50;;
5999;SDS011;3028;49.468;7.694;2023-03-22T11:06:17;2.63;;;0.65;;
5999;SDS011;3028;49.468;7.694;2023-03-22T11:08:27;0.80;;;0.70;;
5999;SDS011;3028;49.468;7.694;2023-03-22T11:10:31;1.20;;;0.60;;
5999;SDS011;3028;49.468;7.694;2023-03-22T11:12:40;1.52;;;0.60;;
5999;SDS011;3028;49.468;7.694;2023-03-22T11:14:57;2.40;;;1.00;;
5999;SDS011;3028;49.468;7.694;2023-03-22T11:17:10;0.75;;;0.60;;
5999;SDS011;3028;49.468;7.694;2023-03-22T11:19:22;0.70;;;0.63;;
5999;SDS011;3028;49.468;7.694;2023-03-22T11:21:45;1.70;;;1.10;;
5999;SDS011;3028;49.468;7.694;2023-03-22T11:24:03;2.28;;;0.70;;
5999;SDS011;3028;49.468;7.694;2023-03-22T11:26:13;0.82;;;0.70;;
5999;SDS011;3028;49.468;7.694;2023-03-22T11:28:22;1.35;;;0.82;;
5999;SDS011;3028;49.468;7.694;2023-03-22T11:30:32;0.60;;;0.60;;
5999;SDS011;3028;49.468;7.694;2023-03-22T11:32:44;1.33;;;0.60;;
5999;SDS011;3028;49.468;7.694;2023-03-22T11:34:58;1.77;;;0.52;;
5999;SDS011;3028;49.468;7.694;2023-03-22T11:37:14;1.80;;;0.70;;
5999;SDS011;3028;49.468;7.694;2023-03-22T11:39:26;2.75;;;0.77;;
5999;SDS011;3028;49.468;7.694;2023-03-22T11:41:36;0.93;;;0.63;;
5999;SDS011;3028;49.468;7.694;2023-03-22T11:43:51;0.95;;;0.70;;
5999;SDS011;3028;49.468;7.694;2023-03-22T11:45:59;0.88;;;0.63;;
5999;SDS011;3028;49.468;7.694;2023-03-22T11:48:05;1.73;;;0.65;;
5999;SDS011;3028;49.468;7.694;2023-03-22T11:50:29;0.80;;;0.70;;
5999;SDS011;3028;49.468;7.694;2023-03-22T11:52:41;0.98;;;0.80;;
5999;SDS011;3028;49.468;7.694;2023-03-22T11:54:50;0.73;;;0.73;;
5999;SDS011;3028;49.468;7.694;2023-03-22T11:56:53;1.60;;;0.60;;
5999;SDS011;3028;49.468;7.694;2023-03-22T12:01:12;0.82;;;0.70;;
5999;SDS011;3028;49.468;7.694;2023-03-22T12:03:22;1.02;;;0.90;;
5999;SDS011;3028;49.468;7.694;2023-03-22T12:05:28;2.00;;;1.20;;
5999;SDS011;3028;49.468;7.694;2023-03-22T12:07:35;1.33;;;0.93;;
5999;SDS011;3028;49.468;7.694;2023-03-22T12:12:18;1.33;;;0.73;;
5999;SDS011;3028;49.468;7.694;2023-03-22T12:17:11;1.80;;;0.70;;
5999;SDS011;3028;49.468;7.694;2023-03-22T12:21:44;3.33;;;0.60;;
5999;SDS011;3028;49.468;7.694;2023-03-22T12:23:46;0.60;;;0.60;;
5999;SDS011;3028;49.468;7.694;2023-03-22T12:28:03;0.95;;;0.65;;
5999;SDS011;3028;49.468;7.694;2023-03-22T12:30:11;1.17;;;0.90;;
5999;SDS011;3028;49.468;7.694;2023-03-22T12:32:18;0.73;;;0.65;;
5999;SDS011;3028;49.468;7.694;2023-03-22T12:34:31;2.65;;;0.98;;
5999;SDS011;3028;49.468;7.694;2023-03-22T12:40:59;0.70;;;0.70;;
5999;SDS011;3028;49.468;7.694;2023-03-22T12:45:20;1.20;;;0.80;;
5999;SDS011;3028;49.468;7.694;2023-03-22T12:47:29;0.90;;;0.80;;
5999;SDS011;3028;49.468;7.694;2023-03-22T12:49:55;1.02;;;0.90;;
5999;SDS011;3028;49.468;7.694;2023-03-22T12:52:00;1.60;;;0.90;;
5999;SDS011;3028;49.468;7.694;2023-03-22T12:54:46;1.00;;;0.85;;
5999;SDS011;3028;49.468;7.694;2023-03-22T12:56:49;1.05;;;0.77;;
5999;SDS011;3028;49.468;7.694;2023-03-22T12:58:56;0.70;;;0.55;;
5999;SDS011;3028;49.468;7.694;2023-03-22T13:01:20;0.77;;;0.77;;
5999;SDS011;3028;49.468;7.694;2023-03-22T13:03:25;0.80;;;0.60;;
5999;SDS011;3028;49.468;7.694;2023-03-22T13:05:37;0.82;;;0.70;;
5999;SDS011;3028;49.468;7.694;2023-03-22T13:09:48;1.13;;;0.80;;
5999;SDS011;3028;49.468;7.694;2023-03-22T13:16:54;0.68;;;0.68;;
5999;SDS011;3028;49.468;7.694;2023-03-22T13:19:02;1.58;;;0.73;;
5999;SDS011;3028;49.468;7.694;2023-03-22T13:23:23;1.77;;;0.70;;
5999;SDS011;3028;49.468;7.694;2023-03-22T13:25:28;1.38;;;0.90;;
5999;SDS011;3028;49.468;7.694;2023-03-22T13:27:35;1.10;;;0.52;;
5999;SDS011;3028;49.468;7.694;2023-03-22T13:29:58;2.20;;;1.13;;
5999;SDS011;3028;49.468;7.694;2023-03-22T13:32:01;2.20;;;0.80;;
5999;SDS011;3028;49.468;7.694;2023-03-22T13:34:09;1.13;;;0.82;;
5999;SDS011;3028;49.468;7.694;2023-03-22T13:36:21;0.93;;;0.90;;
5999;SDS011;3028;49.468;7.694;2023-03-22T13:38:34;1.98;;;0.88;;
5999;SDS011;3028;49.468;7.694;2023-03-22T13:45:29;1.20;;;0.82;;
5999;SDS011;3028;49.468;7.694;2023-03-22T13:47:42;11.25;;;0.93;;
5999;SDS011;3028;49.468;7.694;2023-03-22T13:49:47;1.38;;;0.90;;
5999;SDS011;3028;49.468;7.694;2023-03-22T13:51:52;1.23;;;0.57;;
5999;SDS011;3028;49.468;7.694;2023-03-22T13:54:01;1.10;;;0.95;;
5999;SDS011;3028;49.468;7.694;2023-03-22T14:00:51;1.65;;;0.90;;
5999;SDS011;3028;49.468;7.694;2023-03-22T14:02:55;1.50;;;0.80;;
5999;SDS011;3028;49.468;7.694;2023-03-22T14:05:00;0.80;;;0.80;;
5999;SDS011;3028;49.468;7.694;2023-03-22T14:09:22;1.15;;;1.05;;
5999;SDS011;3028;49.468;7.694;2023-03-22T14:11:28;1.88;;;0.80;;
5999;SDS011;3028;49.468;7.694;2023-03-22T14:13:41;1.58;;;0.70;;
5999;SDS011;3028;49.468;7.694;2023-03-22T14:15:51;1.52;;;0.63;;
5999;SDS011;3028;49.468;7.694;2023-03-22T14:17:56;0.98;;;0.85;;
5999;SDS011;3028;49.468;7.694;2023-03-22T14:20:01;0.65;;;0.57;;
5999;SDS011;3028;49.468;7.694;2023-03-22T14:22:09;1.67;;;0.80;;
5999;SDS011;3028;49.468;7.694;2023-03-22T14:24:17;1.48;;;0.70;;
5999;SDS011;3028;49.468;7.694;2023-03-22T14:28:32;2.20;;;0.80;;
5999;SDS011;3028;49.468;7.694;2023-03-22T14:30:42;2.10;;;0.73;;
5999;SDS011;3028;49.468;7.694;2023-03-22T14:32:43;0.70;;;0.70;;
5999;SDS011;3028;49.468;7.694;2023-03-22T14:34:52;1.08;;;0.55;;
5999;SDS011;3028;49.468;7.694;2023-03-22T14:36:56;1.35;;;0.65;;
5999;SDS011;3028;49.468;7.694;2023-03-22T14:38:59;0.50;;;0.50;;